Date,TemperatureHighF,TemperatureAvgF,TemperatureLowF,DewpointHighF,DewpointAvgF,DewpointLowF,HumidityHigh,HumidityAvg,HumidityLow,PressureMaxIn,PressureMinIn,WindSpeedMaxMPH,WindSpeedAvgMPH,GustSpeedMaxMPH,PrecipitationSumIn
2013-11-1,74,62,52,11,8,4,18,12,8,30.05,29.93,10,2,10,0.00
2013-11-2,66,57,50,40,21,4,51,28,11,29.96,29.84,8,1,8,0.00
2013-11-3,64,53,46,20,9,2,29,18,11,29.99,29.87,9,3,9,0.00
2013-11-4,69,56,45,15,8,1,28,15,10,30.02,29.84,12,4,12,0.00
2013-11-5,72,61,50,11,7,2,14,11,9,30.16,30.02,10,2,10,0.00
2013-11-6,71,62,55,11,7,4,13,11,9,30.19,30.08,11,3,11,0.00
2013-11-7,72,61,52,26,10,4,35,14,9,30.11,29.99,6,1,6,0.00
2013-11-8,70,58,49,32,22,7,45,28,9,30.02,29.90,6,1,6,0.00
2013-11-9,71,57,48,35,18,4,53,25,9,29.99,29.90,11,2,11,0.00
2013-11-10,62,54,50,41,31,14,60,43,16,30.05,29.96,8,2,8,0.00
2013-11-11,64,56,49,42,28,8,58,37,14,30.11,29.99,8,1,8,0.00
2013-11-12,70,60,56,29,15,6,34,18,9,30.22,30.08,8,2,8,0.00
2013-11-13,72,59,52,40,25,8,59,30,9,30.19,30.05,6,1,6,0.00
2013-11-14,63,55,50,54,36,4,78,51,13,30.05,29.84,8,1,8,0.00
2013-11-15,62,53,48,28,10,2,44,19,11,29.84,29.66,8,2,8,0.00
2013-11-16,63,53,47,34,24,5,54,36,11,29.87,29.72,9,2,9,0.00
2013-11-17,61,53,48,38,28,7,60,42,12,30.02,29.87,8,2,8,0.00
2013-11-18,58,51,47,39,30,18,62,45,22,30.08,30.02,10,2,10,0.00
2013-11-19,58,55,52,50,37,26,74,51,31,30.05,29.87,9,2,9,0.63
2013-11-20,59,57,52,53,50,46,82,79,74,29.90,29.78,10,1,10,0.75
2013-11-21,60,55,51,48,22,4,81,39,12,29.90,29.81,23,3,23,0.04
2013-11-22,70,61,53,11,6,3,13,11,10,29.96,29.81,24,5,24,0.00
2013-11-23,66,56,50,30,8,2,44,16,10,30.02,29.87,17,3,17,0.00
2013-11-24,62,53,47,36,16,2,55,28,11,30.16,30.02,6,1,6,0.00
2013-11-25,66,54,45,19,8,2,34,17,10,30.22,30.14,8,2,9,0.00
2013-11-26,61,54,50,8,5,2,16,14,11,30.16,29.96,13,4,13,0.00
2013-11-27,62,55,50,18,9,4,27,16,11,29.96,29.75,10,4,10,0.00
2013-11-28,70,60,54,11,6,4,13,12,9,29.96,29.78,10,3,10,0.00
2013-11-29,68,58,51,10,6,0,16,12,10,30.11,29.96,8,1,8,0.00
2013-11-30,66,56,49,23,11,2,31,17,10,30.19,30.11,6,1,6,0.00